Weather at Zheludok Heliport [CLOSED]

Public forecast

Using degrees Celsius for public forecast. Weather courtesy of forecast.io.

Closest aviation weather report (METAR) to Zheludok Heliport

Closest report is Hrodna Airport, 32.7 nm (60.6 km) W.

2024/06/22 07:00 (retrieved 23 minutes ago)

UMMG 220700Z 16003G06MPS CAVOK 19/14 Q1011 NOSIG

Closest aviation forecast (TAF) to Zheludok Heliport

Closest forecast is Vilnius International Airport, 63.2 nm (117.0 km) N.

2024/06/22 06:03 (retrieved 1 hour ago)

TAF EYVI 220500Z 2206/2306 VRB05KT 9000 NSC TEMPO 2206/2214 15012KT BKN040CB TEMPO 2214/2221 VRB15G25KT 3000 TSRA SCT010 BKN030CB BECMG 2221/2223 BKN005 OVC015 TEMPO 2223/2304 3000 MIFG BR BKN002